sensor_id;sensor_type;location;lat;lon;timestamp;pressure;altitude;pressure_sealevel;temperature;humidity
64616;BME280;51027;42.162;24.754;2022-12-18T00:01:34;100351.88;;;10.27;100.00
64616;BME280;51027;42.162;24.754;2022-12-18T00:04:03;100339.03;;;10.15;100.00
64616;BME280;51027;42.162;24.754;2022-12-18T00:06:29;100347.72;;;10.17;100.00
64616;BME280;51027;42.162;24.754;2022-12-18T00:08:56;100348.38;;;10.27;100.00
64616;BME280;51027;42.162;24.754;2022-12-18T00:11:24;100346.00;;;10.16;100.00
64616;BME280;51027;42.162;24.754;2022-12-18T00:13:51;100360.47;;;10.00;100.00
64616;BME280;51027;42.162;24.754;2022-12-18T00:16:19;100356.06;;;10.02;100.00
64616;BME280;51027;42.162;24.754;2022-12-18T00:18:46;100377.72;;;10.12;100.00
64616;BME280;51027;42.162;24.754;2022-12-18T00:21:13;100390.72;;;10.18;100.00
64616;BME280;51027;42.162;24.754;2022-12-18T00:23:41;100396.38;;;10.02;100.00
64616;BME280;51027;42.162;24.754;2022-12-18T00:26:11;100411.28;;;10.03;100.00
64616;BME280;51027;42.162;24.754;2022-12-18T00:28:37;100402.25;;;10.14;100.00
64616;BME280;51027;42.162;24.754;2022-12-18T00:31:06;100338.22;;;9.79;100.00
64616;BME280;51027;42.162;24.754;2022-12-18T00:33:32;100411.91;;;10.13;100.00
64616;BME280;51027;42.162;24.754;2022-12-18T00:36:06;100406.53;;;10.16;100.00
64616;BME280;51027;42.162;24.754;2022-12-18T00:38:33;100383.25;;;10.01;100.00
64616;BME280;51027;42.162;24.754;2022-12-18T00:40:58;100412.94;;;10.06;100.00
64616;BME280;51027;42.162;24.754;2022-12-18T00:43:24;100415.31;;;10.17;100.00
64616;BME280;51027;42.162;24.754;2022-12-18T00:45:49;100409.31;;;10.12;100.00
64616;BME280;51027;42.162;24.754;2022-12-18T00:48:15;100425.94;;;10.14;100.00
64616;BME280;51027;42.162;24.754;2022-12-18T00:50:40;100432.16;;;10.09;100.00
64616;BME280;51027;42.162;24.754;2022-12-18T00:53:05;100416.69;;;9.97;100.00
64616;BME280;51027;42.162;24.754;2022-12-18T00:55:31;100435.88;;;10.02;100.00
64616;BME280;51027;42.162;24.754;2022-12-18T00:57:57;100416.63;;;9.99;100.00
64616;BME280;51027;42.162;24.754;2022-12-18T01:00:22;100425.63;;;9.90;100.00
64616;BME280;51027;42.162;24.754;2022-12-18T01:02:47;100434.69;;;10.14;100.00
64616;BME280;51027;42.162;24.754;2022-12-18T01:05:14;100426.31;;;9.98;100.00
64616;BME280;51027;42.162;24.754;2022-12-18T01:07:40;100426.88;;;10.09;100.00
64616;BME280;51027;42.162;24.754;2022-12-18T01:10:06;100380.78;;;9.61;100.00
64616;BME280;51027;42.162;24.754;2022-12-18T01:12:32;100434.41;;;9.89;100.00
64616;BME280;51027;42.162;24.754;2022-12-18T01:14:58;100422.94;;;9.56;100.00
64616;BME280;51027;42.162;24.754;2022-12-18T01:17:23;100436.53;;;9.75;100.00
64616;BME280;51027;42.162;24.754;2022-12-18T01:19:49;100420.59;;;9.81;100.00
64616;BME280;51027;42.162;24.754;2022-12-18T01:22:15;100393.03;;;9.62;100.00
64616;BME280;51027;42.162;24.754;2022-12-18T01:24:40;100402.59;;;9.64;100.00
64616;BME280;51027;42.162;24.754;2022-12-18T01:27:05;100432.84;;;9.82;100.00
64616;BME280;51027;42.162;24.754;2022-12-18T01:29:31;100424.84;;;9.51;100.00
64616;BME280;51027;42.162;24.754;2022-12-18T01:31:56;100432.44;;;9.63;100.00
64616;BME280;51027;42.162;24.754;2022-12-18T01:34:23;100429.28;;;9.47;100.00
64616;BME280;51027;42.162;24.754;2022-12-18T01:36:48;100435.44;;;9.46;100.00
64616;BME280;51027;42.162;24.754;2022-12-18T01:39:14;100398.66;;;9.45;100.00
64616;BME280;51027;42.162;24.754;2022-12-18T01:41:40;100433.97;;;9.72;100.00
64616;BME280;51027;42.162;24.754;2022-12-18T01:47:41;100415.06;;;9.56;100.00
64616;BME280;51027;42.162;24.754;2022-12-18T01:52:43;100422.34;;;9.80;100.00
64616;BME280;51027;42.162;24.754;2022-12-18T01:55:11;100439.06;;;9.78;100.00
64616;BME280;51027;42.162;24.754;2022-12-18T01:57:38;100430.22;;;9.82;100.00
64616;BME280;51027;42.162;24.754;2022-12-18T02:00:11;100435.72;;;9.73;100.00
64616;BME280;51027;42.162;24.754;2022-12-18T02:02:37;100441.03;;;9.70;100.00
64616;BME280;51027;42.162;24.754;2022-12-18T02:05:03;100442.28;;;9.53;100.00
64616;BME280;51027;42.162;24.754;2022-12-18T02:10:32;100444.88;;;9.55;100.00
64616;BME280;51027;42.162;24.754;2022-12-18T02:13:19;100447.38;;;9.61;100.00
64616;BME280;51027;42.162;24.754;2022-12-18T02:16:07;100454.47;;;9.58;100.00
64616;BME280;51027;42.162;24.754;2022-12-18T02:18:43;100454.22;;;9.68;100.00
64616;BME280;51027;42.162;24.754;2022-12-18T02:21:36;100459.59;;;9.64;100.00
64616;BME280;51027;42.162;24.754;2022-12-18T02:24:33;100458.34;;;9.78;100.00
64616;BME280;51027;42.162;24.754;2022-12-18T02:27:03;100462.69;;;9.81;100.00
64616;BME280;51027;42.162;24.754;2022-12-18T02:29:35;100467.06;;;9.80;100.00
64616;BME280;51027;42.162;24.754;2022-12-18T02:32:04;100468.56;;;9.92;100.00
64616;BME280;51027;42.162;24.754;2022-12-18T02:34:33;100452.31;;;9.75;100.00
64616;BME280;51027;42.162;24.754;2022-12-18T02:37:03;100461.50;;;9.94;100.00
64616;BME280;51027;42.162;24.754;2022-12-18T02:39:32;100440.16;;;9.71;100.00
64616;BME280;51027;42.162;24.754;2022-12-18T02:42:00;100452.31;;;9.75;100.00
64616;BME280;51027;42.162;24.754;2022-12-18T02:44:32;100456.06;;;9.65;100.00
64616;BME280;51027;42.162;24.754;2022-12-18T02:46:58;100441.22;;;9.62;100.00
64616;BME280;51027;42.162;24.754;2022-12-18T02:52:34;100447.31;;;9.64;100.00
64616;BME280;51027;42.162;24.754;2022-12-18T02:58:17;100454.16;;;9.71;100.00
64616;BME280;51027;42.162;24.754;2022-12-18T03:04:12;100456.72;;;9.74;100.00
64616;BME280;51027;42.162;24.754;2022-12-18T03:06:43;100448.09;;;9.68;100.00
64616;BME280;51027;42.162;24.754;2022-12-18T03:09:27;100465.41;;;9.76;100.00
64616;BME280;51027;42.162;24.754;2022-12-18T03:12:05;100476.94;;;9.72;100.00
64616;BME280;51027;42.162;24.754;2022-12-18T03:15:03;100476.28;;;9.63;100.00
64616;BME280;51027;42.162;24.754;2022-12-18T03:17:31;100463.25;;;9.57;100.00
64616;BME280;51027;42.162;24.754;2022-12-18T03:20:02;100475.47;;;9.59;100.00
64616;BME280;51027;42.162;24.754;2022-12-18T03:22:30;100472.81;;;9.61;100.00
64616;BME280;51027;42.162;24.754;2022-12-18T03:24:58;100479.84;;;9.59;100.00
64616;BME280;51027;42.162;24.754;2022-12-18T03:27:26;100467.59;;;9.58;100.00
64616;BME280;51027;42.162;24.754;2022-12-18T03:30:05;100477.25;;;9.57;100.00
64616;BME280;51027;42.162;24.754;2022-12-18T03:35:08;100485.94;;;9.62;100.00
64616;BME280;51027;42.162;24.754;2022-12-18T03:37:35;100484.25;;;9.58;100.00
64616;BME280;51027;42.162;24.754;2022-12-18T03:40:02;100480.06;;;9.49;100.00
64616;BME280;51027;42.162;24.754;2022-12-18T03:42:50;100487.06;;;9.49;100.00
64616;BME280;51027;42.162;24.754;2022-12-18T03:45:26;100494.81;;;9.57;100.00
64616;BME280;51027;42.162;24.754;2022-12-18T03:48:02;100508.63;;;9.66;100.00
64616;BME280;51027;42.162;24.754;2022-12-18T03:50:56;100512.22;;;9.62;100.00
64616;BME280;51027;42.162;24.754;2022-12-18T03:53:46;100518.25;;;9.67;100.00
64616;BME280;51027;42.162;24.754;2022-12-18T03:56:16;100515.69;;;9.64;100.00
64616;BME280;51027;42.162;24.754;2022-12-18T03:58:42;100515.84;;;9.57;100.00
64616;BME280;51027;42.162;24.754;2022-12-18T04:01:10;100516.63;;;9.62;100.00
64616;BME280;51027;42.162;24.754;2022-12-18T04:03:37;100535.00;;;9.63;100.00
64616;BME280;51027;42.162;24.754;2022-12-18T04:06:03;100516.75;;;9.56;100.00
64616;BME280;51027;42.162;24.754;2022-12-18T04:08:30;100527.97;;;9.64;100.00
64616;BME280;51027;42.162;24.754;2022-12-18T04:10:55;100527.19;;;9.59;100.00
64616;BME280;51027;42.162;24.754;2022-12-18T04:13:23;100510.78;;;9.47;100.00
64616;BME280;51027;42.162;24.754;2022-12-18T04:15:48;100506.66;;;9.36;100.00
64616;BME280;51027;42.162;24.754;2022-12-18T04:18:14;100530.88;;;9.51;100.00
64616;BME280;51027;42.162;24.754;2022-12-18T04:20:39;100543.97;;;9.53;100.00
64616;BME280;51027;42.162;24.754;2022-12-18T04:23:04;100522.09;;;9.52;100.00
64616;BME280;51027;42.162;24.754;2022-12-18T04:25:30;100537.84;;;9.52;100.00
64616;BME280;51027;42.162;24.754;2022-12-18T04:27:55;100535.22;;;9.52;100.00
64616;BME280;51027;42.162;24.754;2022-12-18T04:30:20;100532.75;;;9.45;100.00
64616;BME280;51027;42.162;24.754;2022-12-18T04:32:46;100546.69;;;9.48;100.00
64616;BME280;51027;42.162;24.754;2022-12-18T04:35:11;100547.75;;;9.41;100.00
64616;BME280;51027;42.162;24.754;2022-12-18T04:37:37;100546.00;;;9.39;100.00
64616;BME280;51027;42.162;24.754;2022-12-18T04:40:03;100533.09;;;9.28;100.00
64616;BME280;51027;42.162;24.754;2022-12-18T04:42:28;100550.63;;;9.28;100.00
64616;BME280;51027;42.162;24.754;2022-12-18T04:44:54;100555.03;;;9.27;100.00
64616;BME280;51027;42.162;24.754;2022-12-18T04:47:19;100548.34;;;9.11;100.00
64616;BME280;51027;42.162;24.754;2022-12-18T04:49:44;100557.28;;;9.02;100.00
64616;BME280;51027;42.162;24.754;2022-12-18T04:52:10;100553.84;;;8.97;100.00
64616;BME280;51027;42.162;24.754;2022-12-18T04:54:35;100569.59;;;9.00;100.00
64616;BME280;51027;42.162;24.754;2022-12-18T04:57:01;100570.44;;;9.01;100.00
64616;BME280;51027;42.162;24.754;2022-12-18T04:59:26;100577.59;;;8.92;100.00
64616;BME280;51027;42.162;24.754;2022-12-18T05:01:51;100572.50;;;8.83;100.00
64616;BME280;51027;42.162;24.754;2022-12-18T05:04:17;100584.91;;;8.75;100.00
64616;BME280;51027;42.162;24.754;2022-12-18T05:06:42;100596.38;;;8.71;100.00
64616;BME280;51027;42.162;24.754;2022-12-18T05:09:07;100589.44;;;8.65;100.00
64616;BME280;51027;42.162;24.754;2022-12-18T05:11:36;100602.56;;;8.65;100.00
64616;BME280;51027;42.162;24.754;2022-12-18T05:14:02;100610.41;;;8.67;100.00
64616;BME280;51027;42.162;24.754;2022-12-18T05:16:27;100609.72;;;8.57;100.00
64616;BME280;51027;42.162;24.754;2022-12-18T05:18:52;100625.28;;;8.68;100.00
64616;BME280;51027;42.162;24.754;2022-12-18T05:21:18;100621.91;;;8.61;100.00
64616;BME280;51027;42.162;24.754;2022-12-18T05:23:43;100629.75;;;8.63;100.00
64616;BME280;51027;42.162;24.754;2022-12-18T05:26:14;100628.78;;;8.70;100.00
64616;BME280;51027;42.162;24.754;2022-12-18T05:28:39;100631.53;;;8.61;100.00
64616;BME280;51027;42.162;24.754;2022-12-18T05:31:05;100641.97;;;8.65;100.00
64616;BME280;51027;42.162;24.754;2022-12-18T05:33:33;100642.78;;;8.71;100.00
64616;BME280;51027;42.162;24.754;2022-12-18T05:36:04;100653.19;;;8.75;100.00
64616;BME280;51027;42.162;24.754;2022-12-18T05:38:32;100642.03;;;8.62;100.00
64616;BME280;51027;42.162;24.754;2022-12-18T05:40:58;100661.91;;;8.77;100.00
64616;BME280;51027;42.162;24.754;2022-12-18T05:43:26;100655.75;;;8.78;100.00
64616;BME280;51027;42.162;24.754;2022-12-18T05:45:53;100666.34;;;8.74;100.00
64616;BME280;51027;42.162;24.754;2022-12-18T05:48:22;100673.31;;;8.76;100.00
64616;BME280;51027;42.162;24.754;2022-12-18T05:50:48;100662.81;;;8.75;100.00
64616;BME280;51027;42.162;24.754;2022-12-18T05:53:16;100670.75;;;8.72;100.00
64616;BME280;51027;42.162;24.754;2022-12-18T05:55:42;100675.03;;;8.79;100.00
64616;BME280;51027;42.162;24.754;2022-12-18T05:58:09;100684.75;;;8.74;100.00
64616;BME280;51027;42.162;24.754;2022-12-18T06:00:38;100678.56;;;8.76;100.00
64616;BME280;51027;42.162;24.754;2022-12-18T06:03:07;100682.00;;;8.81;100.00
64616;BME280;51027;42.162;24.754;2022-12-18T06:05:41;100663.09;;;8.59;100.00
64616;BME280;51027;42.162;24.754;2022-12-18T06:08:07;100687.44;;;8.68;100.00
64616;BME280;51027;42.162;24.754;2022-12-18T06:10:33;100695.13;;;8.81;100.00
64616;BME280;51027;42.162;24.754;2022-12-18T06:12:59;100709.19;;;8.79;100.00
64616;BME280;51027;42.162;24.754;2022-12-18T06:15:25;100708.19;;;8.84;100.00
64616;BME280;51027;42.162;24.754;2022-12-18T06:17:50;100705.53;;;8.86;100.00
64616;BME280;51027;42.162;24.754;2022-12-18T06:20:16;100706.38;;;8.88;100.00
64616;BME280;51027;42.162;24.754;2022-12-18T06:22:47;100707.28;;;8.87;100.00
64616;BME280;51027;42.162;24.754;2022-12-18T06:25:13;100701.16;;;8.86;100.00
64616;BME280;51027;42.162;24.754;2022-12-18T06:27:39;100690.78;;;8.77;100.00
64616;BME280;51027;42.162;24.754;2022-12-18T06:30:09;100714.28;;;8.89;100.00
64616;BME280;51027;42.162;24.754;2022-12-18T06:32:38;100679.50;;;8.72;100.00
64616;BME280;51027;42.162;24.754;2022-12-18T06:35:04;100709.06;;;8.85;100.00
64616;BME280;51027;42.162;24.754;2022-12-18T06:37:31;100741.25;;;8.98;100.00
64616;BME280;51027;42.162;24.754;2022-12-18T06:39:56;100734.28;;;8.97;100.00
64616;BME280;51027;42.162;24.754;2022-12-18T06:42:22;100742.06;;;9.03;100.00
64616;BME280;51027;42.162;24.754;2022-12-18T06:44:48;100751.72;;;9.02;100.00
64616;BME280;51027;42.162;24.754;2022-12-18T06:47:13;100743.03;;;8.97;100.00
64616;BME280;51027;42.162;24.754;2022-12-18T06:49:39;100758.69;;;9.03;100.00
64616;BME280;51027;42.162;24.754;2022-12-18T06:52:04;100761.31;;;9.05;100.00
64616;BME280;51027;42.162;24.754;2022-12-18T06:54:29;100763.09;;;9.03;100.00
64616;BME280;51027;42.162;24.754;2022-12-18T06:56:55;100767.53;;;8.98;100.00
64616;BME280;51027;42.162;24.754;2022-12-18T06:59:20;100776.28;;;8.98;100.00
64616;BME280;51027;42.162;24.754;2022-12-18T07:01:46;100776.28;;;8.98;100.00
64616;BME280;51027;42.162;24.754;2022-12-18T07:04:11;100784.16;;;9.00;100.00
64616;BME280;51027;42.162;24.754;2022-12-18T07:06:36;100784.25;;;8.93;100.00
64616;BME280;51027;42.162;24.754;2022-12-18T07:09:02;100785.91;;;9.01;100.00
64616;BME280;51027;42.162;24.754;2022-12-18T07:11:27;100792.06;;;8.97;100.00
64616;BME280;51027;42.162;24.754;2022-12-18T07:13:53;100792.06;;;8.97;100.00
64616;BME280;51027;42.162;24.754;2022-12-18T07:16:22;100796.47;;;8.96;100.00
64616;BME280;51027;42.162;24.754;2022-12-18T07:18:47;100799.97;;;8.97;100.00
64616;BME280;51027;42.162;24.754;2022-12-18T07:21:15;100797.34;;;8.95;100.00
64616;BME280;51027;42.162;24.754;2022-12-18T07:23:41;100800.03;;;8.92;100.00
64616;BME280;51027;42.162;24.754;2022-12-18T07:26:10;100801.66;;;9.02;100.00
64616;BME280;51027;42.162;24.754;2022-12-18T07:28:37;100782.63;;;8.85;100.00
64616;BME280;51027;42.162;24.754;2022-12-18T07:31:05;100791.31;;;8.88;100.00
64616;BME280;51027;42.162;24.754;2022-12-18T07:33:31;100806.06;;;8.99;100.00
64616;BME280;51027;42.162;24.754;2022-12-18T07:35:58;100809.47;;;9.05;100.00
64616;BME280;51027;42.162;24.754;2022-12-18T07:38:24;100804.31;;;8.98;100.00
64616;BME280;51027;42.162;24.754;2022-12-18T07:40:49;100779.16;;;8.83;100.00
64616;BME280;51027;42.162;24.754;2022-12-18T07:43:15;100809.59;;;8.99;100.00
64616;BME280;51027;42.162;24.754;2022-12-18T07:45:41;100815.66;;;9.03;100.00
64616;BME280;51027;42.162;24.754;2022-12-18T07:48:07;100818.16;;;9.09;100.00
64616;BME280;51027;42.162;24.754;2022-12-18T07:50:32;100821.66;;;9.11;100.00
64616;BME280;51027;42.162;24.754;2022-12-18T07:52:58;100797.34;;;8.95;100.00
64616;BME280;51027;42.162;24.754;2022-12-18T07:55:23;100812.22;;;8.99;100.00
64616;BME280;51027;42.162;24.754;2022-12-18T07:57:48;100761.84;;;8.70;100.00
64616;BME280;51027;42.162;24.754;2022-12-18T08:00:14;100840.94;;;9.08;100.00
64616;BME280;51027;42.162;24.754;2022-12-18T08:02:40;100825.28;;;9.02;100.00
64616;BME280;51027;42.162;24.754;2022-12-18T08:05:06;100849.50;;;9.24;100.00
64616;BME280;51027;42.162;24.754;2022-12-18T08:07:31;100844.41;;;9.13;100.00
64616;BME280;51027;42.162;24.754;2022-12-18T08:09:57;100847.88;;;9.14;100.00
64616;BME280;51027;42.162;24.754;2022-12-18T08:12:22;100851.31;;;9.19;100.00
64616;BME280;51027;42.162;24.754;2022-12-18T08:14:47;100836.47;;;9.15;100.00
64616;BME280;51027;42.162;24.754;2022-12-18T08:17:13;100863.34;;;9.35;100.00
64616;BME280;51027;42.162;24.754;2022-12-18T08:19:38;100853.81;;;9.27;100.00
64616;BME280;51027;42.162;24.754;2022-12-18T08:22:04;100866.13;;;9.24;100.00
64616;BME280;51027;42.162;24.754;2022-12-18T08:24:30;100865.97;;;9.35;100.00
64616;BME280;51027;42.162;24.754;2022-12-18T08:26:55;100874.66;;;9.40;100.00
64616;BME280;51027;42.162;24.754;2022-12-18T08:29:22;100871.19;;;9.37;100.00
64616;BME280;51027;42.162;24.754;2022-12-18T08:31:47;100872.91;;;9.39;100.00
64616;BME280;51027;42.162;24.754;2022-12-18T08:34:13;100874.66;;;9.40;100.00
64616;BME280;51027;42.162;24.754;2022-12-18T08:36:42;100870.28;;;9.39;100.00
64616;BME280;51027;42.162;24.754;2022-12-18T08:39:07;100856.25;;;9.40;100.00
64616;BME280;51027;42.162;24.754;2022-12-18T08:41:33;100877.06;;;9.54;100.00
64616;BME280;51027;42.162;24.754;2022-12-18T08:43:58;100830.06;;;9.34;100.00
64616;BME280;51027;42.162;24.754;2022-12-18T08:46:43;100839.25;;;9.61;100.00
64616;BME280;51027;42.162;24.754;2022-12-18T08:49:10;100863.72;;;9.66;100.00
64616;BME280;51027;42.162;24.754;2022-12-18T08:51:36;100859.44;;;9.59;100.00
64616;BME280;51027;42.162;24.754;2022-12-18T08:54:03;100868.03;;;9.69;100.00
64616;BME280;51027;42.162;24.754;2022-12-18T08:56:29;100862.91;;;9.63;100.00
64616;BME280;51027;42.162;24.754;2022-12-18T08:58:58;100838.41;;;9.59;100.00
64616;BME280;51027;42.162;24.754;2022-12-18T09:01:24;100844.53;;;9.60;100.00
64616;BME280;51027;42.162;24.754;2022-12-18T09:03:50;100862.78;;;9.69;100.00
64616;BME280;51027;42.162;24.754;2022-12-18T09:06:17;100861.03;;;9.68;100.00
64616;BME280;51027;42.162;24.754;2022-12-18T09:08:44;100862.50;;;9.86;100.00
64616;BME280;51027;42.162;24.754;2022-12-18T09:11:21;100866.03;;;9.85;100.00
64616;BME280;51027;42.162;24.754;2022-12-18T09:13:47;100863.47;;;9.81;100.00
64616;BME280;51027;42.162;24.754;2022-12-18T09:16:13;100853.31;;;9.59;100.00
64616;BME280;51027;42.162;24.754;2022-12-18T09:18:38;100854.75;;;9.78;100.00
64616;BME280;51027;42.162;24.754;2022-12-18T09:21:14;100860.00;;;9.78;100.00
64616;BME280;51027;42.162;24.754;2022-12-18T09:23:40;100859.22;;;9.73;100.00
64616;BME280;51027;42.162;24.754;2022-12-18T09:26:06;100860.16;;;9.69;100.00
64616;BME280;51027;42.162;24.754;2022-12-18T09:28:32;100866.09;;;9.80;100.00
64616;BME280;51027;42.162;24.754;2022-12-18T09:30:58;100865.31;;;9.75;100.00
64616;BME280;51027;42.162;24.754;2022-12-18T09:33:23;100866.22;;;9.74;100.00
64616;BME280;51027;42.162;24.754;2022-12-18T09:35:49;100862.75;;;9.72;100.00
64616;BME280;51027;42.162;24.754;2022-12-18T09:38:17;100867.00;;;9.79;100.00
64616;BME280;51027;42.162;24.754;2022-12-18T09:40:59;100868.69;;;9.83;100.00
64616;BME280;51027;42.162;24.754;2022-12-18T09:43:53;100870.41;;;9.86;100.00
64616;BME280;51027;42.162;24.754;2022-12-18T09:46:27;100871.53;;;9.69;100.00
64616;BME280;51027;42.162;24.754;2022-12-18T09:48:57;100868.00;;;9.70;100.00
64616;BME280;51027;42.162;24.754;2022-12-18T09:51:33;100865.41;;;9.69;100.00
64616;BME280;51027;42.162;24.754;2022-12-18T09:54:06;100865.38;;;9.70;100.00
64616;BME280;51027;42.162;24.754;2022-12-18T09:56:39;100858.41;;;9.68;100.00
64616;BME280;51027;42.162;24.754;2022-12-18T09:59:05;100867.91;;;9.76;100.00
64616;BME280;51027;42.162;24.754;2022-12-18T10:01:31;100871.34;;;9.81;100.00
64616;BME280;51027;42.162;24.754;2022-12-18T10:03:58;100864.44;;;9.76;100.00
64616;BME280;51027;42.162;24.754;2022-12-18T10:06:34;100859.13;;;9.77;100.00
64616;BME280;51027;42.162;24.754;2022-12-18T10:14:51;100866.97;;;9.80;100.00
64616;BME280;51027;42.162;24.754;2022-12-18T10:18:05;100861.63;;;9.85;100.00
64616;BME280;51027;42.162;24.754;2022-12-18T10:20:16;100862.56;;;9.82;100.00
64616;BME280;51027;42.162;24.754;2022-12-18T10:22:53;100869.69;;;9.76;100.00
64616;BME280;51027;42.162;24.754;2022-12-18T10:25:55;100866.22;;;9.74;100.00
64616;BME280;51027;42.162;24.754;2022-12-18T10:28:20;100870.66;;;9.70;100.00
64616;BME280;51027;42.162;24.754;2022-12-18T10:30:47;100843.66;;;9.59;100.00
64616;BME280;51027;42.162;24.754;2022-12-18T10:33:18;100865.41;;;9.69;100.00
64616;BME280;51027;42.162;24.754;2022-12-18T10:35:45;100845.47;;;9.56;100.00
64616;BME280;51027;42.162;24.754;2022-12-18T10:41:08;100873.28;;;9.72;100.00
64616;BME280;51027;42.162;24.754;2022-12-18T10:46:36;100882.97;;;9.68;100.00
64616;BME280;51027;42.162;24.754;2022-12-18T10:49:01;100884.72;;;9.68;100.00
64616;BME280;51027;42.162;24.754;2022-12-18T10:51:34;100885.63;;;9.67;100.00
64616;BME280;51027;42.162;24.754;2022-12-18T10:56:31;100895.16;;;9.74;100.00
64616;BME280;51027;42.162;24.754;2022-12-18T10:58:58;100889.22;;;9.63;100.00
64616;BME280;51027;42.162;24.754;2022-12-18T11:01:24;100911.03;;;9.68;100.00
64616;BME280;51027;42.162;24.754;2022-12-18T11:06:18;100878.16;;;9.41;100.00
64616;BME280;51027;42.162;24.754;2022-12-18T11:08:57;100897.94;;;9.65;100.00
64616;BME280;51027;42.162;24.754;2022-12-18T11:11:24;100904.16;;;9.59;100.00
64616;BME280;51027;42.162;24.754;2022-12-18T11:16:24;100884.41;;;9.34;100.00
64616;BME280;51027;42.162;24.754;2022-12-18T11:18:50;100876.72;;;9.18;100.00
64616;BME280;51027;42.162;24.754;2022-12-18T11:21:16;100904.53;;;9.35;100.00
64616;BME280;51027;42.162;24.754;2022-12-18T11:23:52;100903.81;;;9.23;100.00
64616;BME280;51027;42.162;24.754;2022-12-18T11:26:18;100923.25;;;9.13;100.00
64616;BME280;51027;42.162;24.754;2022-12-18T11:28:50;100912.91;;;9.00;100.00
64616;BME280;51027;42.162;24.754;2022-12-18T11:31:25;100912.22;;;8.84;100.00
64616;BME280;51027;42.162;24.754;2022-12-18T11:34:00;100922.94;;;8.67;100.00
64616;BME280;51027;42.162;24.754;2022-12-18T11:36:30;100928.31;;;8.55;100.00
64616;BME280;51027;42.162;24.754;2022-12-18T11:39:01;100918.03;;;8.33;100.00
64616;BME280;51027;42.162;24.754;2022-12-18T11:41:55;100923.44;;;8.17;100.00
64616;BME280;51027;42.162;24.754;2022-12-18T11:44:54;100927.00;;;8.11;100.00
64616;BME280;51027;42.162;24.754;2022-12-18T11:47:40;100932.28;;;8.09;100.00
64616;BME280;51027;42.162;24.754;2022-12-18T11:50:15;100928.72;;;8.14;100.00
64616;BME280;51027;42.162;24.754;2022-12-18T11:52:42;100928.56;;;8.27;100.00
64616;BME280;51027;42.162;24.754;2022-12-18T11:55:16;100922.47;;;8.25;100.00
64616;BME280;51027;42.162;24.754;2022-12-18T12:00:21;100913.66;;;8.35;100.00
64616;BME280;51027;42.162;24.754;2022-12-18T12:08:02;100940.41;;;8.71;100.00
64616;BME280;51027;42.162;24.754;2022-12-18T12:21:43;100933.13;;;8.94;100.00
64616;BME280;51027;42.162;24.754;2022-12-18T12:24:22;100930.66;;;8.82;100.00
64616;BME280;51027;42.162;24.754;2022-12-18T12:27:20;100924.44;;;8.88;100.00
64616;BME280;51027;42.162;24.754;2022-12-18T12:29:59;100935.94;;;8.78;100.00
64616;BME280;51027;42.162;24.754;2022-12-18T12:32:40;100929.75;;;8.83;100.00
64616;BME280;51027;42.162;24.754;2022-12-18T12:35:25;100944.72;;;8.75;100.00
64616;BME280;51027;42.162;24.754;2022-12-18T12:38:19;100952.53;;;8.83;100.00
64616;BME280;51027;42.162;24.754;2022-12-18T12:40:51;100955.81;;;8.99;100.00
64616;BME280;51027;42.162;24.754;2022-12-18T12:46:05;100961.16;;;8.94;100.00
64616;BME280;51027;42.162;24.754;2022-12-18T12:48:35;100972.50;;;8.96;100.00
64616;BME280;51027;42.162;24.754;2022-12-18T12:51:10;100976.78;;;9.05;100.00
64616;BME280;51027;42.162;24.754;2022-12-18T12:53:37;100978.75;;;8.89;100.00
64616;BME280;51027;42.162;24.754;2022-12-18T12:56:04;100945.81;;;8.59;100.00
64616;BME280;51027;42.162;24.754;2022-12-18T13:04:01;100981.53;;;8.72;100.00
64616;BME280;51027;42.162;24.754;2022-12-18T13:07:15;100998.13;;;8.76;100.00
64616;BME280;51027;42.162;24.754;2022-12-18T13:09:20;101001.63;;;8.79;100.00
64616;BME280;51027;42.162;24.754;2022-12-18T13:11:46;101001.66;;;8.75;100.00
64616;BME280;51027;42.162;24.754;2022-12-18T13:14:36;101009.38;;;8.87;100.00
64616;BME280;51027;42.162;24.754;2022-12-18T13:22:34;101020.00;;;8.78;100.00
64616;BME280;51027;42.162;24.754;2022-12-18T13:25:33;101017.13;;;9.01;100.00
64616;BME280;51027;42.162;24.754;2022-12-18T13:28:12;101019.81;;;8.94;100.00
64616;BME280;51027;42.162;24.754;2022-12-18T13:43:45;101028.50;;;9.01;100.00
64616;BME280;51027;42.162;24.754;2022-12-18T13:51:54;101012.13;;;8.79;100.00
64616;BME280;51027;42.162;24.754;2022-12-18T13:56:58;101038.31;;;8.84;100.00
64616;BME280;51027;42.162;24.754;2022-12-18T13:59:25;100980.03;;;8.51;100.00
64616;BME280;51027;42.162;24.754;2022-12-18T14:01:56;101048.94;;;8.75;100.00
64616;BME280;51027;42.162;24.754;2022-12-18T14:04:33;101052.50;;;8.68;100.00
64616;BME280;51027;42.162;24.754;2022-12-18T14:07:10;101057.75;;;8.71;100.00
64616;BME280;51027;42.162;24.754;2022-12-18T14:09:44;101055.97;;;8.71;100.00
64616;BME280;51027;42.162;24.754;2022-12-18T14:12:31;101069.91;;;8.81;100.00
64616;BME280;51027;42.162;24.754;2022-12-18T14:20:31;101075.81;;;8.98;100.00
64616;BME280;51027;42.162;24.754;2022-12-18T14:22:58;101074.31;;;8.79;100.00
64616;BME280;51027;42.162;24.754;2022-12-18T14:25:27;101079.59;;;8.74;100.00
64616;BME280;51027;42.162;24.754;2022-12-18T14:28:11;101089.34;;;8.57;100.00
64616;BME280;51027;42.162;24.754;2022-12-18T14:30:40;101073.59;;;8.60;100.00
64616;BME280;51027;42.162;24.754;2022-12-18T14:33:17;101094.59;;;8.57;100.00